createdAt,value
2018-06-22T00:01:48.075Z,64.30
2018-06-22T00:04:16.713Z,64.79
2018-06-22T00:06:45.403Z,64.29
2018-06-22T00:09:15.757Z,64.93
2018-06-22T00:11:45.610Z,64.71
2018-06-22T00:14:15.384Z,65.42
2018-06-22T00:16:44.571Z,66.42
2018-06-22T00:19:13.546Z,67.07
2018-06-22T00:21:42.129Z,66.87
2018-06-22T00:24:11.054Z,66.82
2018-06-22T00:26:39.671Z,67.10
2018-06-22T00:29:08.423Z,67.36
2018-06-22T00:31:37.016Z,67.45
2018-06-22T00:34:06.636Z,66.99
2018-06-22T00:36:36.251Z,67.72
2018-06-22T00:39:06.626Z,67.03
2018-06-22T00:41:35.557Z,67.25
2018-06-22T00:44:04.211Z,67.28
2018-06-22T00:46:33.029Z,66.68
2018-06-22T00:49:01.776Z,66.96
2018-06-22T00:51:30.434Z,66.12
2018-06-22T00:54:12.182Z,66.69
2018-06-22T00:56:40.776Z,67.55
2018-06-22T00:59:09.890Z,67.25
2018-06-22T01:01:39.157Z,67.86
2018-06-22T01:04:08.552Z,68.15
2018-06-22T01:06:37.513Z,68.46
2018-06-22T01:09:09.870Z,68.43
2018-06-22T01:11:38.556Z,68.51
2018-06-22T01:14:08.011Z,68.25
2018-06-22T01:16:37.020Z,68.87
2018-06-22T01:19:07.074Z,68.98
2018-06-22T01:21:35.713Z,68.26
2018-06-22T01:24:04.614Z,68.60
2018-06-22T01:26:33.756Z,68.73
2018-06-22T01:29:07.636Z,68.80
2018-06-22T01:31:36.368Z,69.13
2018-06-22T01:34:05.121Z,69.30
2018-06-22T01:36:33.820Z,68.87
2018-06-22T01:39:02.519Z,68.75
2018-06-22T01:41:31.138Z,69.68
2018-06-22T01:43:59.780Z,69.96
2018-06-22T01:46:28.370Z,69.84
2018-06-22T01:48:57.330Z,70.74
2018-06-22T01:51:26.171Z,70.83
2018-06-22T01:53:55.392Z,70.51
2018-06-22T01:56:23.948Z,70.50
2018-06-22T01:58:53.415Z,70.85
2018-06-22T02:01:22.348Z,70.51
2018-06-22T02:03:51.260Z,70.17
2018-06-22T02:06:19.872Z,70.87
2018-06-22T02:08:48.515Z,70.70
2018-06-22T02:11:17.390Z,70.96
2018-06-22T02:13:46.018Z,70.71
2018-06-22T02:16:15.446Z,71.32
2018-06-22T02:18:44.089Z,71.23
2018-06-22T02:21:12.689Z,71.50
2018-06-22T02:23:41.906Z,71.29
2018-06-22T02:26:10.794Z,70.74
2018-06-22T02:28:39.536Z,70.68
2018-06-22T02:31:08.452Z,70.29
2018-06-22T02:33:37.148Z,70.42
2018-06-22T02:36:05.769Z,70.52
2018-06-22T02:38:34.430Z,70.25
2018-06-22T02:41:07.171Z,69.95
2018-06-22T02:43:36.540Z,69.95
2018-06-22T02:46:05.284Z,69.87
2018-06-22T02:48:34.224Z,69.26
2018-06-22T02:51:02.873Z,68.91
2018-06-22T02:53:31.511Z,69.06
2018-06-22T02:56:01.505Z,69.12
2018-06-22T02:58:31.680Z,69.22
2018-06-22T03:01:00.803Z,69.04
2018-06-22T03:03:29.428Z,69.38
2018-06-22T03:05:58.101Z,68.94
2018-06-22T03:08:26.980Z,67.89
2018-06-22T03:10:56.178Z,68.65
2018-06-22T03:13:24.822Z,69.08
2018-06-22T03:15:53.452Z,69.33
2018-06-22T03:18:22.343Z,69.43
2018-06-22T03:20:50.963Z,70.14
2018-06-22T03:23:19.978Z,69.54
2018-06-22T03:25:48.872Z,69.96
2018-06-22T03:28:17.802Z,69.89
2018-06-22T03:30:46.752Z,69.79
2018-06-22T03:33:15.652Z,69.85
2018-06-22T03:35:44.573Z,70.08
2018-06-22T03:38:13.248Z,69.15
2018-06-22T03:40:41.894Z,69.35
2018-06-22T03:43:10.528Z,68.39
2018-06-22T03:45:39.462Z,68.88
2018-06-22T03:48:08.082Z,68.85
2018-06-22T03:50:36.668Z,68.75
2018-06-22T03:53:05.279Z,68.87
2018-06-22T03:55:33.964Z,68.19
2018-06-22T03:58:02.683Z,68.53
2018-06-22T04:00:31.325Z,68.58
2018-06-22T04:02:59.967Z,68.61
2018-06-22T04:05:28.679Z,68.37
2018-06-22T04:07:57.305Z,69.04
2018-06-22T04:10:25.943Z,68.27
2018-06-22T04:12:54.585Z,69.00
2018-06-22T04:15:23.484Z,68.71
2018-06-22T04:17:53.967Z,68.34
2018-06-22T04:20:23.743Z,68.66
2018-06-22T04:22:53.244Z,68.68
2018-06-22T04:25:23.735Z,68.13
2018-06-22T04:27:53.000Z,68.41
2018-06-22T04:30:21.633Z,68.62
2018-06-22T04:32:50.980Z,68.78
2018-06-22T04:35:19.644Z,68.92
2018-06-22T04:37:48.542Z,68.07
2018-06-22T04:40:17.423Z,69.18
2018-06-22T04:42:46.050Z,69.01
2018-06-22T04:45:15.577Z,68.31
2018-06-22T04:47:44.632Z,68.40
2018-06-22T04:50:13.533Z,68.25
2018-06-22T04:52:42.197Z,67.81
2018-06-22T04:55:11.307Z,67.88
2018-06-22T04:57:40.581Z,68.09
2018-06-22T05:00:09.911Z,67.64
2018-06-22T05:02:38.504Z,67.72
2018-06-22T05:05:07.125Z,68.39
2018-06-22T05:07:35.763Z,67.58
2018-06-22T05:10:04.953Z,66.86
2018-06-22T05:12:33.951Z,66.33
2018-06-22T05:15:02.981Z,66.86
2018-06-22T05:17:33.408Z,67.88
2018-06-22T05:20:02.107Z,67.75
2018-06-22T05:22:30.788Z,67.29
2018-06-22T05:24:59.555Z,67.01
2018-06-22T05:27:28.234Z,67.22
2018-06-22T05:29:56.852Z,66.90
2018-06-22T05:32:25.506Z,65.85
2018-06-22T05:34:54.504Z,66.20
2018-06-22T05:37:24.679Z,65.55
2018-06-22T05:39:53.345Z,65.01
2018-06-22T05:42:21.983Z,65.60
2018-06-22T05:44:50.943Z,65.68
2018-06-22T05:47:19.656Z,64.87
2018-06-22T05:49:48.800Z,64.25
2018-06-22T05:52:18.269Z,65.20
2018-06-22T05:54:47.462Z,65.22
2018-06-22T05:57:17.326Z,64.78
2018-06-22T05:59:46.771Z,63.61
2018-06-22T06:02:15.471Z,64.06
2018-06-22T06:04:44.451Z,64.70
2018-06-22T06:07:13.640Z,64.93
2018-06-22T06:09:42.252Z,65.84
2018-06-22T06:12:11.133Z,65.38
2018-06-22T06:14:41.425Z,64.68
2018-06-22T06:17:10.817Z,65.26
2018-06-22T06:19:39.684Z,64.88
2018-06-22T06:22:08.749Z,65.14
2018-06-22T06:24:37.526Z,64.65
2018-06-22T06:27:06.603Z,64.81
2018-06-22T06:29:35.237Z,64.29
2018-06-22T06:32:03.897Z,65.11
2018-06-22T06:34:32.517Z,65.23
2018-06-22T06:37:02.314Z,64.30
2018-06-22T06:39:31.151Z,65.24
2018-06-22T06:41:59.765Z,65.12
2018-06-22T06:44:28.929Z,65.46
2018-06-22T06:46:57.533Z,66.04
2018-06-22T06:49:26.404Z,66.77
2018-06-22T06:51:55.006Z,67.00
2018-06-22T06:54:23.679Z,66.22
2018-06-22T06:56:52.627Z,66.07
2018-06-22T06:59:21.253Z,63.95
2018-06-22T07:01:50.188Z,64.13
2018-06-22T07:04:18.859Z,62.68
2018-06-22T07:06:47.581Z,61.33
2018-06-22T07:09:16.394Z,61.84
2018-06-22T07:11:45.137Z,60.93
2018-06-22T07:14:13.768Z,61.57
2018-06-22T07:16:42.429Z,62.58
2018-06-22T07:19:11.193Z,62.62
2018-06-22T07:21:40.317Z,63.69
2018-06-22T07:24:09.190Z,62.87
2018-06-22T07:26:38.145Z,63.02
2018-06-22T07:29:06.832Z,63.75
2018-06-22T07:31:35.528Z,62.20
2018-06-22T07:34:04.138Z,62.56
2018-06-22T07:36:32.795Z,62.29
2018-06-22T07:39:01.946Z,62.03
2018-06-22T07:41:30.706Z,61.04
2018-06-22T07:43:59.509Z,60.82
2018-06-22T07:46:28.800Z,61.57
2018-06-22T07:49:00.466Z,61.56
2018-06-22T07:51:29.482Z,62.96
2018-06-22T07:53:58.470Z,63.42
2018-06-22T07:56:27.728Z,64.12
2018-06-22T07:58:56.960Z,63.86
2018-06-22T08:01:25.945Z,63.18
2018-06-22T08:03:54.857Z,63.19
2018-06-22T08:06:24.201Z,62.48
2018-06-22T08:08:53.050Z,61.94
2018-06-22T08:11:21.911Z,59.71
2018-06-22T08:13:50.537Z,59.74
2018-06-22T08:16:19.370Z,59.93
2018-06-22T08:18:48.369Z,59.38
2018-06-22T08:21:17.082Z,59.95
2018-06-22T08:23:45.796Z,60.21
2018-06-22T08:26:14.451Z,59.64
2018-06-22T08:28:43.196Z,60.02
2018-06-22T08:31:12.401Z,59.66
2018-06-22T08:33:41.000Z,59.24
2018-06-22T08:36:09.668Z,58.11
2018-06-22T08:38:38.271Z,58.94
2018-06-22T08:41:07.706Z,58.31
2018-06-22T08:43:36.614Z,57.11
2018-06-22T08:46:05.392Z,57.86
2018-06-22T08:48:34.206Z,58.32
2018-06-22T08:51:02.842Z,56.74
2018-06-22T08:53:31.463Z,57.26
2018-06-22T08:56:00.130Z,57.08
2018-06-22T08:58:28.858Z,58.51
2018-06-22T09:00:57.881Z,58.21
2018-06-22T09:03:26.549Z,58.13
2018-06-22T09:05:55.420Z,56.85
2018-06-22T09:08:24.227Z,54.29
2018-06-22T09:10:52.944Z,52.52
2018-06-22T09:13:21.706Z,52.87
2018-06-22T09:15:50.676Z,49.86
2018-06-22T09:18:20.006Z,48.68
2018-06-22T09:20:48.669Z,49.05
2018-06-22T09:23:17.420Z,47.15
2018-06-22T09:25:46.153Z,50.11
2018-06-22T09:28:14.766Z,50.86
2018-06-22T09:30:43.421Z,54.06
2018-06-22T09:33:12.157Z,56.46
2018-06-22T09:35:40.829Z,58.14
2018-06-22T09:38:09.451Z,60.95
2018-06-22T09:40:38.232Z,62.56
2018-06-22T09:43:06.868Z,64.99
2018-06-22T09:45:35.925Z,66.74
2018-06-22T09:48:05.008Z,68.72
2018-06-22T09:50:34.341Z,69.38
2018-06-22T09:53:03.012Z,67.99
2018-06-22T09:55:31.664Z,69.29
2018-06-22T09:58:00.271Z,70.11
2018-06-22T10:00:29.182Z,71.42
2018-06-22T10:02:57.957Z,71.43
2018-06-22T10:05:28.974Z,72.93
2018-06-22T10:07:57.996Z,71.01
2018-06-22T10:10:26.631Z,70.32
2018-06-22T10:12:55.345Z,69.27
2018-06-22T10:15:24.236Z,69.51
2018-06-22T10:17:52.898Z,68.32
2018-06-22T10:20:22.173Z,66.04
2018-06-22T10:22:51.145Z,62.72
2018-06-22T10:25:19.742Z,60.13
2018-06-22T10:27:48.390Z,60.52
2018-06-22T10:30:17.037Z,60.41
2018-06-22T10:32:46.023Z,61.86
2018-06-22T10:35:14.667Z,63.61
2018-06-22T10:37:43.272Z,60.80
2018-06-22T10:40:11.953Z,61.39
2018-06-22T10:42:40.710Z,58.87
2018-06-22T10:45:09.733Z,58.92
2018-06-22T10:47:38.407Z,57.15
2018-06-22T10:50:07.855Z,56.74
2018-06-22T10:52:36.785Z,57.01
2018-06-22T10:55:05.468Z,54.67
2018-06-22T10:57:34.579Z,53.23
2018-06-22T11:00:03.548Z,51.97
2018-06-22T11:02:32.390Z,53.13
2018-06-22T11:05:01.070Z,51.88
2018-06-22T11:07:30.330Z,51.48
2018-06-22T11:09:59.574Z,52.99
2018-06-22T11:12:29.171Z,54.47
2018-06-22T11:14:58.230Z,55.85
2018-06-22T11:17:27.582Z,63.64
2018-06-22T11:19:56.941Z,72.58
2018-06-22T11:22:25.678Z,75.24
2018-06-22T11:24:55.112Z,77.18
2018-06-22T11:27:24.489Z,79.08
2018-06-22T11:29:53.272Z,81.60
2018-06-22T11:32:22.262Z,80.77
2018-06-22T11:34:51.278Z,82.44
2018-06-22T11:37:20.079Z,82.98
2018-06-22T11:39:48.802Z,80.85
2018-06-22T11:42:17.460Z,78.85
2018-06-22T11:44:47.049Z,78.46
2018-06-22T11:47:16.773Z,74.97
2018-06-22T11:49:46.383Z,66.34
2018-06-22T11:52:15.430Z,65.07
2018-06-22T11:54:44.190Z,61.01
2018-06-22T11:57:12.824Z,61.07
2018-06-22T11:59:41.851Z,62.30
2018-06-22T12:02:10.518Z,57.43
2018-06-22T12:04:39.338Z,57.21
2018-06-22T12:07:08.397Z,51.25
2018-06-22T12:09:37.321Z,50.27
2018-06-22T12:12:06.004Z,49.83
2018-06-22T12:14:35.057Z,47.21
2018-06-22T12:17:07.803Z,41.79
2018-06-22T12:19:39.949Z,39.38
2018-06-22T12:22:09.259Z,37.70
2018-06-22T12:24:38.088Z,40.75
2018-06-22T12:27:06.756Z,41.12
2018-06-22T12:29:35.824Z,40.32
2018-06-22T12:32:04.704Z,36.06
2018-06-22T12:34:34.591Z,32.15
2018-06-22T12:37:03.513Z,33.42
2018-06-22T12:39:32.322Z,29.57
2018-06-22T12:42:01.014Z,27.94
2018-06-22T12:44:29.664Z,34.83
2018-06-22T12:46:58.411Z,41.46
2018-06-22T12:49:27.080Z,44.34
2018-06-22T12:54:23.535Z,46.40
2018-06-22T12:56:52.412Z,49.00
2018-06-22T12:59:21.113Z,47.75
2018-06-22T13:01:49.879Z,39.27
2018-06-22T13:04:18.639Z,35.07
2018-06-22T13:06:47.933Z,28.09
2018-06-22T13:09:16.635Z,28.08
2018-06-22T13:11:45.276Z,31.43
2018-06-22T13:14:13.942Z,29.06
2018-06-22T13:16:42.641Z,27.59
2018-06-22T13:19:11.273Z,24.97
2018-06-22T13:21:52.080Z,23.12
2018-06-22T13:24:22.248Z,24.50
2018-06-22T13:26:51.399Z,28.28
2018-06-22T13:29:20.295Z,26.89
2018-06-22T13:31:49.587Z,25.89
2018-06-22T13:34:18.561Z,25.70
2018-06-22T13:36:48.114Z,29.31
2018-06-22T13:39:18.222Z,32.49
2018-06-22T13:41:47.205Z,32.04
2018-06-22T13:44:15.822Z,30.40
2018-06-22T13:46:45.016Z,25.52
2018-06-22T13:49:14.352Z,22.12
2018-06-22T13:51:43.382Z,18.72
2018-06-22T13:54:12.127Z,18.78
2018-06-22T13:56:40.868Z,21.82
2018-06-22T13:59:09.821Z,22.55
2018-06-22T14:01:38.945Z,25.53
2018-06-22T14:04:12.859Z,29.83
2018-06-22T14:06:46.833Z,29.25
2018-06-22T14:09:16.421Z,29.08
2018-06-22T14:11:45.122Z,31.92
2018-06-22T14:14:14.122Z,31.75
2018-06-22T14:16:43.272Z,34.52
2018-06-22T14:19:11.943Z,37.30
2018-06-22T14:21:41.249Z,37.13
2018-06-22T14:24:10.208Z,38.98
2018-06-22T14:26:39.243Z,39.95
2018-06-22T14:29:07.938Z,42.44
2018-06-22T14:31:36.868Z,44.13
2018-06-22T14:34:05.663Z,42.80
2018-06-22T14:36:34.337Z,42.98
2018-06-22T14:39:03.049Z,42.28
2018-06-22T14:41:31.742Z,44.43
2018-06-22T14:44:00.463Z,44.49
2018-06-22T14:46:29.155Z,45.09
2018-06-22T14:48:58.879Z,43.35
2018-06-22T14:51:28.322Z,43.24
2018-06-22T14:54:02.197Z,43.59
2018-06-22T14:56:36.898Z,42.33
2018-06-22T14:59:12.208Z,42.96
2018-06-22T15:01:46.356Z,43.21
2018-06-22T15:04:20.789Z,41.16
2018-06-22T15:06:55.218Z,43.20
2018-06-22T15:09:24.375Z,42.71
2018-06-22T15:11:53.398Z,42.45
2018-06-22T15:14:23.257Z,44.06
2018-06-22T15:16:53.070Z,42.56
2018-06-22T15:19:22.124Z,44.04
2018-06-22T15:21:53.242Z,41.41
2018-06-22T15:24:22.036Z,40.86
2018-06-22T15:26:51.042Z,41.19
2018-06-22T15:29:20.002Z,40.95
2018-06-22T15:31:49.241Z,41.63
2018-06-22T15:34:23.071Z,41.05
2018-06-22T15:36:56.844Z,40.42
2018-06-22T15:39:30.719Z,41.25
2018-06-22T15:42:04.562Z,40.49
2018-06-22T15:44:38.866Z,40.56
2018-06-22T15:47:12.747Z,39.52
2018-06-22T15:49:46.622Z,40.23
2018-06-22T15:52:20.461Z,41.05
2018-06-22T15:54:55.023Z,41.07
2018-06-22T15:57:24.113Z,41.54
2018-06-22T15:59:52.799Z,40.85
2018-06-22T16:02:27.097Z,40.58
2018-06-22T16:04:58.429Z,40.24
2018-06-22T16:07:27.433Z,40.02
2018-06-22T16:10:01.245Z,39.93
2018-06-22T16:12:36.551Z,39.03
2018-06-22T16:15:12.626Z,41.17
2018-06-22T16:17:46.390Z,40.72
2018-06-22T16:20:20.671Z,42.01
2018-06-22T16:22:54.560Z,41.77
2018-06-22T16:25:28.351Z,41.21
2018-06-22T16:27:59.727Z,41.17
2018-06-22T16:30:28.969Z,41.64
2018-06-22T16:32:59.244Z,42.87
2018-06-22T16:35:29.629Z,43.11
2018-06-22T16:37:58.621Z,43.45
2018-06-22T16:40:27.269Z,44.05
2018-06-22T16:42:55.949Z,44.38
2018-06-22T16:45:24.871Z,44.99
2018-06-22T16:47:53.472Z,45.19
2018-06-22T16:50:22.271Z,45.27
2018-06-22T16:52:51.209Z,45.21
2018-06-22T16:55:19.908Z,44.48
2018-06-22T16:57:48.595Z,44.59
2018-06-22T17:00:17.255Z,46.13
2018-06-22T17:02:46.000Z,45.11
2018-06-22T17:05:14.846Z,45.71
2018-06-22T17:07:48.513Z,45.55
2018-06-22T17:11:22.304Z,45.79
2018-06-22T17:13:56.025Z,45.01
2018-06-22T17:16:30.080Z,44.87
2018-06-22T17:19:00.094Z,44.15
2018-06-22T17:21:29.758Z,44.19
2018-06-22T17:23:58.484Z,45.25
2018-06-22T17:26:27.086Z,44.80
2018-06-22T17:29:01.666Z,44.72
2018-06-22T17:31:31.125Z,44.92
2018-06-22T17:33:59.858Z,44.63
2018-06-22T17:36:28.836Z,45.22
2018-06-22T17:38:57.782Z,45.97
2018-06-22T17:41:26.469Z,46.17
2018-06-22T17:43:55.106Z,46.82
2018-06-22T17:46:23.804Z,47.04
2018-06-22T17:48:52.830Z,46.60
2018-06-22T17:51:21.498Z,46.61
2018-06-22T17:53:50.287Z,46.95
2018-06-22T17:56:32.313Z,47.05
2018-06-22T17:59:06.225Z,47.43
2018-06-22T18:01:40.100Z,48.17
2018-06-22T18:04:14.043Z,48.17
2018-06-22T18:06:47.862Z,49.04
2018-06-22T18:09:21.704Z,48.61
2018-06-22T18:11:55.481Z,48.37
2018-06-22T18:14:24.278Z,49.28
2018-06-22T18:16:52.922Z,48.16
2018-06-22T18:19:21.579Z,47.83
2018-06-22T18:21:50.539Z,46.86
2018-06-22T18:24:19.194Z,46.86
2018-06-22T18:26:47.950Z,46.15
2018-06-22T18:29:16.619Z,45.88
2018-06-22T18:31:45.241Z,45.93
2018-06-22T18:34:13.920Z,46.60
2018-06-22T18:36:42.589Z,46.45
2018-06-22T18:39:12.862Z,46.75
2018-06-22T18:41:41.832Z,46.21
2018-06-22T18:44:14.592Z,46.22
2018-06-22T18:46:43.434Z,45.99
2018-06-22T18:49:12.242Z,45.18
2018-06-22T18:51:41.196Z,46.12
2018-06-22T18:54:15.144Z,46.00
2018-06-22T18:56:49.130Z,47.18
2018-06-22T18:59:22.852Z,47.01
2018-06-22T19:01:56.582Z,46.83
2018-06-22T19:04:25.381Z,46.45
2018-06-22T19:06:54.118Z,46.42
2018-06-22T19:09:22.989Z,45.35
2018-06-22T19:11:51.845Z,46.50
2018-06-22T19:14:20.513Z,46.29
2018-06-22T19:16:49.625Z,45.42
2018-06-22T19:19:18.661Z,46.23
2018-06-22T19:21:48.693Z,46.42
2018-06-22T19:24:21.064Z,46.10
2018-06-22T19:26:51.190Z,47.04
2018-06-22T19:29:21.367Z,45.71
2018-06-22T19:31:50.527Z,45.92
2018-06-22T19:34:23.400Z,46.77
2018-06-22T19:36:52.218Z,45.86
2018-06-22T19:39:20.949Z,46.67
2018-06-22T19:41:49.653Z,46.89
2018-06-22T19:44:24.449Z,46.18
2018-06-22T19:46:58.869Z,46.08
2018-06-22T19:50:34.610Z,46.95
2018-06-22T19:53:09.199Z,46.99
2018-06-22T19:55:38.367Z,47.16
2018-06-22T19:58:07.363Z,47.27
2018-06-22T20:00:37.315Z,48.08
2018-06-22T20:03:06.032Z,47.61
2018-06-22T20:05:35.095Z,48.04
2018-06-22T20:08:04.030Z,47.50
2018-06-22T20:10:32.960Z,47.60
2018-06-22T20:13:01.816Z,47.87
2018-06-22T20:15:30.921Z,48.41
2018-06-22T20:17:59.851Z,47.40
2018-06-22T20:20:28.948Z,48.05
2018-06-22T20:22:57.752Z,47.82
2018-06-22T20:25:31.583Z,48.04
2018-06-22T20:28:00.555Z,48.12
2018-06-22T20:30:29.871Z,48.76
2018-06-22T20:32:58.551Z,49.31
2018-06-22T20:35:32.973Z,48.88
2018-06-22T20:38:08.828Z,49.57
2018-06-22T20:40:43.030Z,49.81
2018-06-22T20:43:16.938Z,49.70
2018-06-22T20:45:52.277Z,50.52
2018-06-22T20:48:27.080Z,49.50
2018-06-22T20:50:55.936Z,50.28
2018-06-22T20:53:25.196Z,50.45
2018-06-22T20:55:55.636Z,51.32
2018-06-22T20:58:24.341Z,50.98
2018-06-22T21:00:53.097Z,51.03
2018-06-22T21:03:22.296Z,51.39
2018-06-22T21:05:51.158Z,51.10
2018-06-22T21:08:21.334Z,51.24
2018-06-22T21:10:50.482Z,51.59
2018-06-22T21:13:19.527Z,52.16
2018-06-22T21:15:49.039Z,52.14
2018-06-22T21:18:18.331Z,53.05
2018-06-22T21:20:52.189Z,52.36
2018-06-22T21:23:20.932Z,53.36
2018-06-22T21:25:49.761Z,53.43
2018-06-22T21:30:26.054Z,53.71
2018-06-22T21:32:59.949Z,53.98
2018-06-22T21:35:34.123Z,53.66
2018-06-22T21:38:08.179Z,53.55
2018-06-22T21:40:36.855Z,53.59
2018-06-22T21:43:07.457Z,53.47
2018-06-22T21:45:36.058Z,53.71
2018-06-22T21:48:04.788Z,54.09
2018-06-22T21:50:33.704Z,53.54
2018-06-22T21:53:03.009Z,53.79
2018-06-22T21:55:31.893Z,54.28
2018-06-22T21:58:00.656Z,53.36
2018-06-22T22:00:31.736Z,54.64
2018-06-22T22:03:02.157Z,54.54
2018-06-22T22:05:32.113Z,54.36
2018-06-22T22:08:00.977Z,53.68
2018-06-22T22:10:34.760Z,54.35
2018-06-22T22:13:03.455Z,54.35
2018-06-22T22:15:32.108Z,54.85
2018-06-22T22:18:02.335Z,55.46
2018-06-22T22:20:31.524Z,56.47
2018-06-22T22:23:00.978Z,56.45
2018-06-22T22:25:29.867Z,56.92
2018-06-22T22:27:58.478Z,57.76
2018-06-22T22:30:27.337Z,58.32
2018-06-22T22:32:56.238Z,58.00
2018-06-22T22:35:28.300Z,57.75
2018-06-22T22:37:56.884Z,58.88
2018-06-22T22:40:27.119Z,58.66
2018-06-22T22:42:55.720Z,58.39
2018-06-22T22:45:24.418Z,58.37
2018-06-22T22:47:53.061Z,58.77
2018-06-22T22:50:21.710Z,58.50
2018-06-22T22:52:50.665Z,59.05
2018-06-22T22:55:19.508Z,59.32
2018-06-22T22:57:48.433Z,59.74
2018-06-22T23:00:17.055Z,60.03
2018-06-22T23:02:46.689Z,60.92
2018-06-22T23:05:15.858Z,61.83
2018-06-22T23:07:44.580Z,62.53
2018-06-22T23:10:13.383Z,62.50
2018-06-22T23:12:43.830Z,62.46
2018-06-22T23:15:13.181Z,63.00
2018-06-22T23:17:42.190Z,62.42
2018-06-22T23:20:12.630Z,62.81
2018-06-22T23:22:52.600Z,62.51
2018-06-22T23:25:22.254Z,62.51
2018-06-22T23:27:51.502Z,64.50
2018-06-22T23:30:21.053Z,64.28
2018-06-22T23:32:50.511Z,64.19
2018-06-22T23:35:23.269Z,64.17
2018-06-22T23:37:53.425Z,63.82
2018-06-22T23:40:23.393Z,64.43
2018-06-22T23:42:52.541Z,64.83
2018-06-22T23:45:21.846Z,65.39
2018-06-22T23:47:52.099Z,65.32
2018-06-22T23:50:21.450Z,65.90
2018-06-22T23:52:50.897Z,65.65
2018-06-22T23:55:19.648Z,65.16
2018-06-22T23:57:49.785Z,66.48
